createdAt,value
2023-05-14T00:00:20.364Z,67.80
2023-05-14T00:02:51.992Z,67.50
2023-05-14T00:05:23.514Z,69.30
2023-05-14T00:07:54.758Z,67.10
2023-05-14T00:10:31.571Z,67.60
2023-05-14T00:13:03.022Z,67.40
2023-05-14T00:15:34.762Z,67.00
2023-05-14T00:18:06.401Z,68.00
2023-05-14T00:20:37.840Z,69.10
2023-05-14T00:23:08.904Z,69.80
2023-05-14T00:25:42.742Z,68.60
2023-05-14T00:28:14.021Z,68.50
2023-05-14T00:30:45.581Z,68.70
2023-05-14T00:33:17.150Z,70.10
2023-05-14T00:35:48.373Z,68.90
2023-05-14T00:38:20.468Z,68.90
2023-05-14T00:40:53.468Z,68.90
2023-05-14T00:43:26.277Z,69.80
2023-05-14T00:45:59.932Z,70.70
2023-05-14T00:48:31.332Z,73.00
2023-05-14T00:51:02.594Z,71.60
2023-05-14T00:53:37.237Z,70.10
2023-05-14T00:56:10.668Z,70.20
2023-05-14T00:58:41.702Z,71.10
2023-05-14T01:01:15.985Z,70.20
2023-05-14T01:03:49.066Z,70.40
2023-05-14T01:06:27.943Z,68.90
2023-05-14T01:09:09.184Z,69.20
2023-05-14T01:11:52.681Z,69.40
2023-05-14T01:14:27.026Z,68.10
2023-05-14T01:17:02.264Z,66.70
2023-05-14T01:19:40.404Z,67.30
2023-05-14T01:22:13.948Z,67.30
2023-05-14T01:24:45.007Z,65.70
2023-05-14T01:27:21.316Z,65.30
2023-05-14T01:30:01.349Z,64.50
2023-05-14T01:32:34.427Z,64.90
2023-05-14T01:35:05.921Z,65.90
2023-05-14T01:37:40.726Z,66.00
2023-05-14T01:40:13.989Z,66.30
2023-05-14T01:42:47.049Z,65.10
2023-05-14T01:45:18.854Z,66.50
2023-05-14T01:47:50.967Z,66.40
2023-05-14T01:50:27.752Z,66.90
2023-05-14T01:53:01.847Z,68.20
2023-05-14T01:55:32.967Z,68.60
2023-05-14T01:58:03.973Z,69.10
2023-05-14T02:00:35.953Z,70.40
2023-05-14T02:03:07.198Z,69.80
2023-05-14T02:05:39.182Z,70.40
2023-05-14T02:08:12.908Z,71.70
2023-05-14T02:10:44.395Z,73.20
2023-05-14T02:13:16.038Z,73.10
2023-05-14T02:15:47.612Z,73.50
2023-05-14T02:18:19.241Z,74.50
2023-05-14T02:20:50.777Z,74.50
2023-05-14T02:23:34.031Z,74.80
2023-05-14T02:26:10.775Z,75.40
2023-05-14T02:28:42.155Z,76.80
2023-05-14T02:31:14.154Z,77.10
2023-05-14T02:33:45.280Z,78.00
2023-05-14T02:36:16.734Z,78.00
2023-05-14T02:38:49.949Z,77.80
2023-05-14T02:41:21.240Z,78.60
2023-05-14T02:43:53.065Z,79.00
2023-05-14T02:46:24.323Z,80.80
2023-05-14T02:48:55.283Z,79.80
2023-05-14T02:51:27.535Z,81.50
2023-05-14T02:54:01.489Z,81.70
2023-05-14T02:56:33.237Z,82.00
2023-05-14T02:59:04.921Z,82.90
2023-05-14T03:01:36.151Z,83.30
2023-05-14T03:04:07.752Z,82.80
2023-05-14T03:06:39.256Z,85.00
2023-05-14T03:09:13.318Z,87.50
2023-05-14T03:11:44.869Z,86.70
2023-05-14T03:14:16.157Z,88.30
2023-05-14T03:16:47.472Z,87.30
2023-05-14T03:19:18.724Z,88.60
2023-05-14T03:21:51.128Z,90.00
2023-05-14T03:24:24.310Z,90.50
2023-05-14T03:26:56.703Z,90.00
2023-05-14T03:29:27.940Z,90.30
2023-05-14T03:31:59.743Z,91.40
2023-05-14T03:34:31.769Z,90.90
2023-05-14T03:37:02.812Z,91.00
2023-05-14T03:39:36.072Z,91.70
2023-05-14T03:42:07.983Z,91.20
2023-05-14T03:44:39.626Z,92.00
2023-05-14T03:47:11.153Z,92.70
2023-05-14T03:49:42.315Z,93.30
2023-05-14T03:52:13.853Z,94.00
2023-05-14T03:54:47.522Z,94.20
2023-05-14T03:59:55.133Z,95.00
2023-05-14T04:02:29.037Z,95.10
2023-05-14T04:05:23.725Z,96.10
2023-05-14T04:07:57.282Z,96.00
2023-05-14T04:10:32.085Z,96.60
2023-05-14T04:13:05.008Z,97.10
2023-05-14T04:15:41.659Z,97.60
2023-05-14T04:18:15.168Z,98.80
2023-05-14T04:24:02.310Z,98.80
2023-05-14T04:26:43.621Z,99.20
2023-05-14T04:29:18.500Z,99.60
2023-05-14T04:31:50.510Z,99.90
2023-05-14T04:34:27.270Z,99.90
2023-05-14T04:37:00.693Z,99.90
2023-05-14T04:39:32.991Z,99.90
2023-05-14T04:42:07.807Z,99.90
2023-05-14T04:44:40.520Z,99.90
2023-05-14T04:47:33.522Z,99.90
2023-05-14T04:56:33.990Z,99.90
2023-05-14T04:59:23.950Z,99.90
2023-05-14T05:01:57.637Z,99.90
2023-05-14T05:21:17.192Z,99.90
2023-05-14T05:23:55.088Z,99.90
2023-05-14T05:26:27.970Z,99.90
2023-05-14T05:54:11.743Z,99.90
2023-05-14T06:01:03.555Z,99.90
2023-05-14T06:03:35.372Z,99.90
2023-05-14T06:06:11.471Z,99.90
2023-05-14T06:14:52.898Z,99.90
2023-05-14T06:17:25.698Z,99.90
2023-05-14T06:19:58.934Z,99.90
2023-05-14T06:22:34.690Z,99.90
2023-05-14T06:25:07.140Z,99.90
2023-05-14T06:27:39.164Z,99.90
2023-05-14T06:30:12.671Z,99.90
2023-05-14T06:32:45.835Z,99.90
2023-05-14T06:38:04.915Z,99.90
2023-05-14T06:40:36.852Z,99.90
2023-05-14T06:43:10.414Z,99.90
2023-05-14T06:45:41.894Z,99.90
2023-05-14T06:48:14.784Z,99.90
2023-05-14T06:50:46.724Z,99.90
2023-05-14T06:53:20.881Z,99.90
2023-05-14T06:55:53.133Z,99.90
2023-05-14T06:58:27.026Z,99.90
2023-05-14T07:00:59.037Z,99.90
2023-05-14T07:03:31.214Z,99.90
2023-05-14T07:06:03.130Z,99.90
2023-05-14T07:08:40.434Z,99.90
2023-05-14T07:11:15.818Z,99.90
2023-05-14T07:13:47.675Z,99.90
2023-05-14T07:16:20.822Z,99.90
2023-05-14T07:18:54.776Z,99.90
2023-05-14T07:21:27.689Z,99.90
2023-05-14T07:24:01.997Z,99.90
2023-05-14T07:26:34.895Z,99.90
2023-05-14T07:29:06.500Z,99.90
2023-05-14T07:31:39.650Z,99.90
2023-05-14T07:34:12.839Z,99.90
2023-05-14T07:36:45.146Z,99.90
2023-05-14T07:39:19.626Z,99.90
2023-05-14T07:41:52.136Z,99.90
2023-05-14T07:44:23.946Z,99.90
2023-05-14T07:46:56.295Z,99.90
2023-05-14T07:49:38.002Z,99.90
2023-05-14T07:52:10.394Z,99.90
2023-05-14T07:54:44.958Z,99.90
2023-05-14T07:57:16.374Z,99.90
2023-05-14T07:59:48.124Z,99.90
2023-05-14T08:02:21.217Z,99.90
2023-05-14T08:07:40.128Z,99.90
2023-05-14T08:10:15.222Z,99.90
2023-05-14T08:12:50.992Z,99.90
2023-05-14T08:18:20.547Z,99.90
2023-05-14T08:20:52.403Z,99.90
2023-05-14T08:23:23.989Z,99.90
2023-05-14T08:26:02.243Z,99.90
2023-05-14T08:28:33.653Z,99.90
2023-05-14T08:31:05.668Z,99.90
2023-05-14T08:33:37.600Z,99.90
2023-05-14T08:36:18.902Z,99.90
2023-05-14T08:38:51.964Z,99.90
2023-05-14T08:41:26.673Z,99.90
2023-05-14T08:44:09.176Z,99.90
2023-05-14T08:46:42.394Z,99.90
2023-05-14T08:49:24.766Z,99.90
2023-05-14T08:51:57.039Z,99.90
2023-05-14T08:54:29.983Z,99.90
2023-05-14T08:59:48.596Z,99.90
2023-05-14T09:02:21.388Z,99.90
2023-05-14T09:04:57.921Z,99.90
2023-05-14T09:07:29.456Z,99.90
2023-05-14T09:13:02.861Z,99.90
2023-05-14T09:15:37.192Z,99.90
2023-05-14T09:18:13.691Z,99.90
2023-05-14T09:23:57.990Z,99.90
2023-05-14T09:26:40.089Z,99.90
2023-05-14T09:29:55.954Z,99.90
2023-05-14T09:32:30.382Z,99.90
2023-05-14T09:35:02.494Z,99.90
2023-05-14T09:37:38.608Z,99.90
2023-05-14T09:40:15.025Z,99.90
2023-05-14T09:42:49.337Z,99.90
2023-05-14T09:45:22.278Z,99.90
2023-05-14T09:47:57.723Z,99.90
2023-05-14T09:50:32.960Z,99.90
2023-05-14T09:53:06.608Z,99.90
2023-05-14T09:58:28.739Z,99.90
2023-05-14T10:01:19.417Z,99.90
2023-05-14T10:03:55.134Z,99.90
2023-05-14T10:09:17.680Z,99.90
2023-05-14T10:11:54.013Z,99.90
2023-05-14T10:14:30.389Z,99.90
2023-05-14T10:20:09.983Z,99.90
2023-05-14T10:22:43.143Z,99.90
2023-05-14T10:25:15.347Z,99.90
2023-05-14T10:27:47.717Z,99.90
2023-05-14T10:30:20.504Z,99.90
2023-05-14T10:36:09.332Z,99.90
2023-05-14T10:38:42.259Z,99.90
2023-05-14T10:41:17.615Z,99.90
2023-05-14T10:46:26.053Z,99.90
2023-05-14T10:51:38.334Z,99.90
2023-05-14T10:54:13.504Z,99.90
2023-05-14T10:56:50.670Z,99.90
2023-05-14T10:59:22.860Z,99.90
2023-05-14T11:01:55.715Z,99.90
2023-05-14T11:04:28.846Z,99.90
2023-05-14T11:07:00.435Z,99.90
2023-05-14T11:10:04.377Z,99.90
2023-05-14T11:12:43.108Z,99.90
2023-05-14T11:15:20.406Z,99.90
2023-05-14T11:17:53.934Z,99.90
2023-05-14T11:20:26.115Z,99.90
2023-05-14T11:22:58.664Z,99.90
2023-05-14T11:29:19.019Z,99.90
2023-05-14T11:31:55.814Z,99.90
2023-05-14T11:34:28.864Z,99.90
2023-05-14T11:37:01.999Z,99.90
2023-05-14T11:39:35.008Z,99.90
2023-05-14T11:42:08.681Z,99.90
2023-05-14T11:44:41.402Z,99.90
2023-05-14T11:48:00.934Z,99.90
2023-05-14T11:56:24.815Z,99.90
2023-05-14T11:59:04.643Z,99.90
2023-05-14T12:01:41.018Z,99.90
2023-05-14T12:04:16.760Z,99.90
2023-05-14T12:06:49.386Z,99.90
2023-05-14T12:09:21.833Z,99.90
2023-05-14T12:14:44.774Z,99.90
2023-05-14T12:17:18.778Z,99.90
2023-05-14T12:30:43.113Z,99.90
2023-05-14T12:33:28.149Z,99.90
2023-05-14T12:36:19.859Z,99.90
2023-05-14T12:38:53.927Z,99.90
2023-05-14T12:41:28.208Z,99.90
2023-05-14T12:44:00.334Z,99.90
2023-05-14T12:46:32.278Z,99.90
2023-05-14T12:53:53.709Z,99.90
2023-05-14T12:56:29.412Z,99.90
2023-05-14T12:59:02.529Z,99.90
2023-05-14T13:01:35.124Z,99.90
2023-05-14T13:04:07.974Z,99.90
2023-05-14T13:06:41.735Z,99.90
2023-05-14T13:13:07.953Z,99.90
2023-05-14T13:18:48.784Z,99.90
2023-05-14T13:21:20.321Z,99.90
2023-05-14T13:23:52.783Z,99.90
2023-05-14T13:26:28.855Z,99.90
2023-05-14T13:29:33.685Z,99.90
2023-05-14T13:32:05.653Z,99.90
2023-05-14T13:34:37.567Z,99.90
2023-05-14T13:37:09.879Z,99.90
2023-05-14T13:39:41.499Z,99.90
2023-05-14T13:42:13.801Z,99.90
2023-05-14T13:50:07.166Z,99.90
2023-05-14T13:56:30.592Z,99.90
2023-05-14T14:02:47.574Z,99.90
2023-05-14T14:05:23.276Z,99.90
2023-05-14T14:11:15.406Z,99.90
2023-05-14T14:13:47.225Z,99.90
2023-05-14T14:16:21.618Z,99.90
2023-05-14T14:18:54.766Z,99.90
2023-05-14T14:21:30.055Z,99.90
2023-05-14T14:24:04.455Z,99.90
2023-05-14T14:26:39.957Z,99.90
2023-05-14T14:32:31.146Z,99.90
2023-05-14T14:35:12.295Z,99.90
2023-05-14T14:37:50.338Z,99.90
2023-05-14T14:40:22.829Z,99.90
2023-05-14T14:42:55.107Z,99.90
2023-05-14T14:45:27.527Z,99.90
2023-05-14T14:48:32.502Z,99.90
2023-05-14T14:51:06.588Z,99.90
2023-05-14T14:53:42.056Z,99.90
2023-05-14T14:56:13.781Z,99.90
2023-05-14T15:02:30.172Z,99.90
2023-05-14T15:05:03.080Z,99.90
2023-05-14T15:07:36.901Z,99.90
2023-05-14T15:10:14.559Z,99.90
2023-05-14T15:12:46.585Z,99.90
2023-05-14T15:18:24.417Z,99.90
2023-05-14T15:23:54.113Z,99.90
2023-05-14T15:26:28.186Z,99.90
2023-05-14T15:29:03.498Z,99.90
2023-05-14T15:34:03.330Z,99.90
2023-05-14T15:36:35.774Z,99.90
2023-05-14T15:39:11.778Z,99.90
2023-05-14T15:41:48.770Z,99.90
2023-05-14T15:44:21.222Z,99.90
2023-05-14T15:46:53.581Z,99.90
2023-05-14T15:49:25.876Z,99.90
2023-05-14T15:51:58.319Z,99.90
2023-05-14T16:05:10.512Z,99.90
2023-05-14T16:07:51.871Z,99.90
2023-05-14T16:10:24.946Z,99.90
2023-05-14T16:12:56.473Z,99.90
2023-05-14T16:15:27.960Z,99.90
2023-05-14T16:17:59.237Z,99.90
2023-05-14T16:20:32.800Z,99.90
2023-05-14T16:23:03.947Z,99.90
2023-05-14T16:25:35.378Z,99.90
2023-05-14T16:28:06.737Z,99.90
2023-05-14T16:30:38.572Z,99.90
2023-05-14T16:33:10.945Z,99.90
2023-05-14T16:35:44.980Z,99.90
2023-05-14T16:38:16.189Z,99.90
2023-05-14T16:40:47.567Z,99.90
2023-05-14T16:43:19.139Z,99.90
2023-05-14T16:45:50.721Z,99.90
2023-05-14T16:48:22.752Z,99.90
2023-05-14T16:50:57.392Z,99.90
2023-05-14T16:53:30.058Z,99.90
2023-05-14T16:56:01.911Z,99.90
2023-05-14T16:58:33.695Z,99.90
2023-05-14T17:01:09.468Z,99.90
2023-05-14T17:03:42.053Z,99.90
2023-05-14T17:06:18.951Z,99.90
2023-05-14T17:08:50.435Z,99.90
2023-05-14T17:11:23.096Z,99.90
2023-05-14T17:13:54.889Z,99.90
2023-05-14T17:16:27.085Z,99.90
2023-05-14T17:18:58.641Z,99.90
2023-05-14T17:21:32.473Z,99.90
2023-05-14T17:24:03.847Z,99.90
2023-05-14T17:26:35.272Z,99.90
2023-05-14T17:29:07.041Z,99.90
2023-05-14T17:31:38.403Z,99.90
2023-05-14T17:34:09.710Z,99.90
2023-05-14T17:36:43.736Z,99.90
2023-05-14T17:39:15.671Z,99.90
2023-05-14T17:41:47.146Z,99.90
2023-05-14T17:44:19.317Z,99.90
2023-05-14T17:46:51.696Z,99.90
2023-05-14T17:49:23.081Z,99.90
2023-05-14T17:51:55.831Z,99.90
2023-05-14T17:54:26.903Z,99.90
2023-05-14T17:56:58.240Z,99.90
2023-05-14T17:59:29.754Z,99.90
2023-05-14T18:02:01.822Z,99.90
2023-05-14T18:04:32.941Z,99.90
2023-05-14T18:07:07.463Z,99.90
2023-05-14T18:09:38.881Z,99.90
2023-05-14T18:12:11.372Z,99.90
2023-05-14T18:14:44.791Z,99.90
2023-05-14T18:17:16.904Z,99.90
2023-05-14T18:19:48.515Z,99.90
2023-05-14T18:22:23.599Z,99.90
2023-05-14T18:24:56.285Z,99.90
2023-05-14T18:27:28.090Z,99.90
2023-05-14T18:29:59.580Z,99.90
2023-05-14T18:32:30.773Z,99.90
2023-05-14T18:35:02.154Z,99.90
2023-05-14T18:37:37.537Z,99.90
2023-05-14T18:40:10.042Z,99.90
2023-05-14T18:42:41.234Z,99.90
2023-05-14T18:45:13.501Z,99.90
2023-05-14T18:47:44.933Z,99.90
2023-05-14T18:50:16.053Z,99.90
2023-05-14T18:52:49.770Z,99.90
2023-05-14T18:55:21.147Z,99.90
2023-05-14T18:57:52.326Z,99.90
2023-05-14T19:00:23.733Z,99.90
2023-05-14T19:02:55.303Z,99.90
2023-05-14T19:05:27.073Z,99.90
2023-05-14T19:08:01.039Z,99.90
2023-05-14T19:10:32.612Z,99.90
2023-05-14T19:13:04.903Z,99.90
2023-05-14T19:15:36.264Z,99.90
2023-05-14T19:18:07.935Z,99.90
2023-05-14T19:20:39.537Z,99.90
2023-05-14T19:23:12.721Z,99.90
2023-05-14T19:26:02.601Z,99.90
2023-05-14T19:28:33.813Z,99.90
2023-05-14T19:31:04.874Z,99.90
2023-05-14T19:33:36.012Z,99.90
2023-05-14T19:36:08.306Z,99.90
2023-05-14T19:38:43.297Z,99.90
2023-05-14T19:41:14.789Z,99.90
2023-05-14T19:43:46.449Z,99.90
2023-05-14T19:46:18.857Z,99.90
2023-05-14T19:48:49.879Z,99.90
2023-05-14T19:51:20.892Z,99.90
2023-05-14T19:53:54.398Z,99.90
2023-05-14T19:56:27.172Z,99.90
2023-05-14T19:58:59.107Z,99.90
2023-05-14T20:01:31.331Z,99.90
2023-05-14T20:04:03.548Z,99.90
2023-05-14T20:06:35.922Z,99.90
2023-05-14T20:09:09.231Z,99.80
2023-05-14T20:11:40.313Z,99.90
2023-05-14T20:14:11.816Z,99.90
2023-05-14T20:16:43.577Z,99.90
2023-05-14T20:19:14.549Z,99.90
2023-05-14T20:21:46.231Z,99.90
2023-05-14T20:24:20.036Z,99.90
2023-05-14T20:26:51.774Z,99.60
2023-05-14T20:29:23.326Z,99.50
2023-05-14T20:31:54.991Z,98.60
2023-05-14T20:34:26.435Z,99.10
2023-05-14T20:36:58.299Z,97.70
2023-05-14T20:39:31.390Z,97.30
2023-05-14T20:42:03.136Z,95.20
2023-05-14T20:44:34.335Z,95.30
2023-05-14T20:47:05.854Z,95.10
2023-05-14T20:49:37.672Z,94.00
2023-05-14T20:52:09.370Z,93.90
2023-05-14T20:54:42.474Z,95.20
2023-05-14T20:57:13.714Z,94.60
2023-05-14T20:59:44.705Z,95.50
2023-05-14T21:02:16.206Z,94.40
2023-05-14T21:04:48.009Z,92.80
2023-05-14T21:07:18.856Z,93.30
2023-05-14T21:09:53.390Z,91.80
2023-05-14T21:12:25.159Z,92.60
2023-05-14T21:14:56.115Z,93.10
2023-05-14T21:17:27.733Z,94.80
2023-05-14T21:20:01.784Z,93.40
2023-05-14T21:22:33.650Z,91.90
2023-05-14T21:25:06.821Z,91.40
2023-05-14T21:27:38.825Z,93.00
2023-05-14T21:30:11.030Z,91.80
2023-05-14T21:32:42.311Z,90.60
2023-05-14T21:35:13.532Z,91.10
2023-05-14T21:37:44.985Z,91.20
2023-05-14T21:40:18.402Z,91.20
2023-05-14T21:42:49.169Z,90.00
2023-05-14T21:45:22.229Z,90.50
2023-05-14T21:47:55.123Z,90.80
2023-05-14T21:50:27.913Z,90.70
2023-05-14T21:52:58.926Z,89.10
2023-05-14T21:55:32.955Z,88.70
2023-05-14T21:58:04.593Z,87.50
2023-05-14T22:00:35.844Z,88.30
2023-05-14T22:03:08.124Z,86.10
2023-05-14T22:05:39.234Z,84.20
2023-05-14T22:08:12.128Z,85.30
2023-05-14T22:10:47.952Z,86.80
2023-05-14T22:13:19.882Z,82.60
2023-05-14T22:15:58.071Z,84.00
2023-05-14T22:18:37.855Z,81.30
2023-05-14T22:21:09.970Z,83.30
2023-05-14T22:23:41.572Z,82.10
2023-05-14T22:26:15.846Z,81.20
2023-05-14T22:28:47.326Z,79.80
2023-05-14T22:31:19.011Z,80.40
2023-05-14T22:33:50.410Z,79.30
2023-05-14T22:36:22.093Z,80.10
2023-05-14T22:38:53.464Z,78.40
2023-05-14T22:41:27.514Z,77.30
2023-05-14T22:43:58.592Z,78.10
2023-05-14T22:46:30.051Z,76.50
2023-05-14T22:49:02.306Z,78.30
2023-05-14T22:51:33.833Z,75.10
2023-05-14T22:54:05.743Z,75.90
2023-05-14T22:56:40.693Z,75.30
2023-05-14T22:59:12.206Z,74.70
2023-05-14T23:01:44.388Z,75.60
2023-05-14T23:04:15.392Z,76.60
2023-05-14T23:06:48.545Z,74.20
2023-05-14T23:09:20.127Z,74.70
2023-05-14T23:11:54.426Z,73.90
2023-05-14T23:14:25.923Z,72.40
2023-05-14T23:16:57.402Z,73.40
2023-05-14T23:19:29.578Z,72.80
2023-05-14T23:22:01.436Z,73.40
2023-05-14T23:24:33.655Z,73.00
2023-05-14T23:27:07.668Z,71.70
2023-05-14T23:29:38.819Z,71.90
2023-05-14T23:32:11.257Z,71.80
2023-05-14T23:34:42.651Z,71.10
2023-05-14T23:37:14.992Z,70.60
2023-05-14T23:39:46.830Z,72.40
2023-05-14T23:42:23.293Z,72.50
2023-05-14T23:44:54.510Z,71.30
2023-05-14T23:47:26.063Z,70.80
2023-05-14T23:49:57.348Z,70.80
2023-05-14T23:52:28.227Z,70.90
2023-05-14T23:54:59.752Z,70.20
2023-05-14T23:57:33.282Z,71.80
